sensor_id;sensor_type;location;lat;lon;timestamp;P1;durP1;ratioP1;P2;durP2;ratioP2
73593;SDS011;64760;53.404;23.498;2023-12-20T00:01:05;12.40;;;4.82;;
73593;SDS011;64760;53.404;23.498;2023-12-20T00:03:42;15.93;;;8.38;;
73593;SDS011;64760;53.404;23.498;2023-12-20T00:06:09;11.48;;;5.40;;
73593;SDS011;64760;53.404;23.498;2023-12-20T00:08:35;16.73;;;8.40;;
73593;SDS011;64760;53.404;23.498;2023-12-20T00:11:02;13.35;;;5.95;;
73593;SDS011;64760;53.404;23.498;2023-12-20T00:13:28;16.10;;;7.18;;
73593;SDS011;64760;53.404;23.498;2023-12-20T00:15:55;17.55;;;7.93;;
73593;SDS011;64760;53.404;23.498;2023-12-20T00:18:21;8.98;;;4.55;;
73593;SDS011;64760;53.404;23.498;2023-12-20T00:20:48;14.05;;;7.72;;
73593;SDS011;64760;53.404;23.498;2023-12-20T00:23:14;13.95;;;5.97;;
73593;SDS011;64760;53.404;23.498;2023-12-20T00:25:40;11.13;;;5.50;;
73593;SDS011;64760;53.404;23.498;2023-12-20T00:28:07;13.20;;;6.00;;
73593;SDS011;64760;53.404;23.498;2023-12-20T00:30:33;11.02;;;6.05;;
73593;SDS011;64760;53.404;23.498;2023-12-20T00:32:59;17.15;;;8.52;;
73593;SDS011;64760;53.404;23.498;2023-12-20T00:35:26;11.05;;;5.47;;
73593;SDS011;64760;53.404;23.498;2023-12-20T00:37:52;14.93;;;7.18;;
73593;SDS011;64760;53.404;23.498;2023-12-20T00:40:18;13.63;;;6.63;;
73593;SDS011;64760;53.404;23.498;2023-12-20T00:42:46;12.35;;;6.70;;
73593;SDS011;64760;53.404;23.498;2023-12-20T00:45:13;12.45;;;7.07;;
73593;SDS011;64760;53.404;23.498;2023-12-20T00:47:40;9.60;;;4.88;;
73593;SDS011;64760;53.404;23.498;2023-12-20T00:50:07;8.07;;;4.13;;
73593;SDS011;64760;53.404;23.498;2023-12-20T00:52:35;11.77;;;5.80;;
73593;SDS011;64760;53.404;23.498;2023-12-20T00:55:01;11.00;;;4.97;;
73593;SDS011;64760;53.404;23.498;2023-12-20T00:57:27;13.88;;;6.35;;
73593;SDS011;64760;53.404;23.498;2023-12-20T00:59:54;12.77;;;4.80;;
73593;SDS011;64760;53.404;23.498;2023-12-20T01:02:20;11.00;;;4.95;;
73593;SDS011;64760;53.404;23.498;2023-12-20T01:04:47;17.90;;;8.70;;
73593;SDS011;64760;53.404;23.498;2023-12-20T01:07:13;11.90;;;5.32;;
73593;SDS011;64760;53.404;23.498;2023-12-20T01:09:39;15.45;;;6.97;;
73593;SDS011;64760;53.404;23.498;2023-12-20T01:12:06;13.02;;;6.43;;
73593;SDS011;64760;53.404;23.498;2023-12-20T01:14:32;13.75;;;6.05;;
73593;SDS011;64760;53.404;23.498;2023-12-20T01:16:59;8.07;;;4.80;;
73593;SDS011;64760;53.404;23.498;2023-12-20T01:19:25;11.73;;;5.10;;
73593;SDS011;64760;53.404;23.498;2023-12-20T01:21:53;10.57;;;5.35;;
73593;SDS011;64760;53.404;23.498;2023-12-20T01:24:20;8.50;;;3.80;;
73593;SDS011;64760;53.404;23.498;2023-12-20T01:26:46;10.45;;;5.35;;
73593;SDS011;64760;53.404;23.498;2023-12-20T01:29:13;8.77;;;4.90;;
73593;SDS011;64760;53.404;23.498;2023-12-20T01:31:40;9.35;;;5.28;;
73593;SDS011;64760;53.404;23.498;2023-12-20T01:34:06;10.82;;;5.00;;
73593;SDS011;64760;53.404;23.498;2023-12-20T01:36:33;9.73;;;4.30;;
73593;SDS011;64760;53.404;23.498;2023-12-20T01:39:06;13.98;;;6.18;;
73593;SDS011;64760;53.404;23.498;2023-12-20T01:41:32;7.47;;;3.92;;
73593;SDS011;64760;53.404;23.498;2023-12-20T01:43:59;10.95;;;5.07;;
73593;SDS011;64760;53.404;23.498;2023-12-20T01:46:26;14.13;;;5.13;;
73593;SDS011;64760;53.404;23.498;2023-12-20T01:51:28;6.80;;;3.28;;
73593;SDS011;64760;53.404;23.498;2023-12-20T01:53:58;7.47;;;2.88;;
73593;SDS011;64760;53.404;23.498;2023-12-20T01:56:25;7.57;;;4.03;;
73593;SDS011;64760;53.404;23.498;2023-12-20T01:58:54;6.25;;;3.42;;
73593;SDS011;64760;53.404;23.498;2023-12-20T02:01:22;7.78;;;4.70;;
73593;SDS011;64760;53.404;23.498;2023-12-20T02:07:39;6.90;;;3.58;;
73593;SDS011;64760;53.404;23.498;2023-12-20T02:10:06;7.30;;;3.53;;
73593;SDS011;64760;53.404;23.498;2023-12-20T02:12:32;7.38;;;4.05;;
73593;SDS011;64760;53.404;23.498;2023-12-20T02:14:59;9.23;;;4.07;;
73593;SDS011;64760;53.404;23.498;2023-12-20T02:17:25;7.40;;;4.15;;
73593;SDS011;64760;53.404;23.498;2023-12-20T02:19:53;7.82;;;3.85;;
73593;SDS011;64760;53.404;23.498;2023-12-20T02:22:19;6.53;;;3.63;;
73593;SDS011;64760;53.404;23.498;2023-12-20T02:24:46;8.45;;;4.50;;
73593;SDS011;64760;53.404;23.498;2023-12-20T02:27:12;8.98;;;4.65;;
73593;SDS011;64760;53.404;23.498;2023-12-20T02:29:39;6.85;;;3.03;;
73593;SDS011;64760;53.404;23.498;2023-12-20T02:32:05;6.97;;;3.95;;
73593;SDS011;64760;53.404;23.498;2023-12-20T02:34:32;7.20;;;4.22;;
73593;SDS011;64760;53.404;23.498;2023-12-20T02:36:58;6.28;;;3.20;;
73593;SDS011;64760;53.404;23.498;2023-12-20T02:39:25;8.80;;;4.47;;
73593;SDS011;64760;53.404;23.498;2023-12-20T02:41:51;10.75;;;5.15;;
73593;SDS011;64760;53.404;23.498;2023-12-20T02:44:17;5.20;;;2.58;;
73593;SDS011;64760;53.404;23.498;2023-12-20T02:46:44;9.00;;;4.90;;
73593;SDS011;64760;53.404;23.498;2023-12-20T02:49:10;5.93;;;3.13;;
73593;SDS011;64760;53.404;23.498;2023-12-20T02:51:37;10.88;;;5.70;;
73593;SDS011;64760;53.404;23.498;2023-12-20T02:54:06;6.00;;;3.25;;
73593;SDS011;64760;53.404;23.498;2023-12-20T02:56:32;7.30;;;3.58;;
73593;SDS011;64760;53.404;23.498;2023-12-20T02:58:59;8.02;;;4.38;;
73593;SDS011;64760;53.404;23.498;2023-12-20T03:01:26;5.50;;;3.00;;
73593;SDS011;64760;53.404;23.498;2023-12-20T03:03:56;7.97;;;3.78;;
73593;SDS011;64760;53.404;23.498;2023-12-20T03:06:22;4.15;;;2.38;;
73593;SDS011;64760;53.404;23.498;2023-12-20T03:08:49;4.30;;;2.28;;
73593;SDS011;64760;53.404;23.498;2023-12-20T03:11:15;6.78;;;3.83;;
73593;SDS011;64760;53.404;23.498;2023-12-20T03:13:42;7.22;;;4.03;;
73593;SDS011;64760;53.404;23.498;2023-12-20T03:16:11;6.32;;;3.55;;
73593;SDS011;64760;53.404;23.498;2023-12-20T03:18:39;6.25;;;3.08;;
73593;SDS011;64760;53.404;23.498;2023-12-20T03:21:05;5.70;;;2.95;;
73593;SDS011;64760;53.404;23.498;2023-12-20T03:23:32;5.38;;;2.70;;
73593;SDS011;64760;53.404;23.498;2023-12-20T03:25:59;6.82;;;2.63;;
73593;SDS011;64760;53.404;23.498;2023-12-20T03:28:27;5.65;;;2.97;;
73593;SDS011;64760;53.404;23.498;2023-12-20T03:30:53;8.95;;;4.22;;
73593;SDS011;64760;53.404;23.498;2023-12-20T03:33:20;4.25;;;2.40;;
73593;SDS011;64760;53.404;23.498;2023-12-20T03:35:46;5.63;;;2.85;;
73593;SDS011;64760;53.404;23.498;2023-12-20T03:38:12;5.68;;;2.88;;
73593;SDS011;64760;53.404;23.498;2023-12-20T03:40:39;5.30;;;2.65;;
73593;SDS011;64760;53.404;23.498;2023-12-20T03:43:05;7.18;;;4.38;;
73593;SDS011;64760;53.404;23.498;2023-12-20T03:45:31;5.43;;;2.90;;
73593;SDS011;64760;53.404;23.498;2023-12-20T03:47:58;6.00;;;3.35;;
73593;SDS011;64760;53.404;23.498;2023-12-20T03:50:25;8.65;;;4.90;;
73593;SDS011;64760;53.404;23.498;2023-12-20T03:52:53;8.90;;;3.30;;
73593;SDS011;64760;53.404;23.498;2023-12-20T03:55:19;8.73;;;5.10;;
73593;SDS011;64760;53.404;23.498;2023-12-20T03:57:45;4.97;;;3.33;;
73593;SDS011;64760;53.404;23.498;2023-12-20T04:00:12;5.78;;;3.17;;
73593;SDS011;64760;53.404;23.498;2023-12-20T04:02:39;11.70;;;4.50;;
73593;SDS011;64760;53.404;23.498;2023-12-20T04:05:06;6.47;;;3.00;;
73593;SDS011;64760;53.404;23.498;2023-12-20T04:07:33;7.45;;;4.03;;
73593;SDS011;64760;53.404;23.498;2023-12-20T04:10:00;5.90;;;3.53;;
73593;SDS011;64760;53.404;23.498;2023-12-20T04:12:30;5.35;;;3.15;;
73593;SDS011;64760;53.404;23.498;2023-12-20T04:14:57;8.45;;;4.45;;
73593;SDS011;64760;53.404;23.498;2023-12-20T04:17:23;7.22;;;3.78;;
73593;SDS011;64760;53.404;23.498;2023-12-20T04:19:50;7.30;;;4.28;;
73593;SDS011;64760;53.404;23.498;2023-12-20T04:22:20;9.00;;;3.65;;
73593;SDS011;64760;53.404;23.498;2023-12-20T04:24:46;6.65;;;3.45;;
73593;SDS011;64760;53.404;23.498;2023-12-20T04:27:12;6.30;;;3.33;;
73593;SDS011;64760;53.404;23.498;2023-12-20T04:29:39;5.20;;;2.65;;
73593;SDS011;64760;53.404;23.498;2023-12-20T04:32:05;5.72;;;3.42;;
73593;SDS011;64760;53.404;23.498;2023-12-20T04:34:32;10.13;;;5.47;;
73593;SDS011;64760;53.404;23.498;2023-12-20T04:36:58;6.57;;;3.65;;
73593;SDS011;64760;53.404;23.498;2023-12-20T04:39:26;9.18;;;3.88;;
73593;SDS011;64760;53.404;23.498;2023-12-20T04:41:52;10.15;;;5.43;;
73593;SDS011;64760;53.404;23.498;2023-12-20T04:44:18;7.72;;;4.10;;
73593;SDS011;64760;53.404;23.498;2023-12-20T04:46:44;6.90;;;3.67;;
73593;SDS011;64760;53.404;23.498;2023-12-20T04:49:11;17.60;;;8.82;;
73593;SDS011;64760;53.404;23.498;2023-12-20T04:51:37;13.10;;;7.00;;
73593;SDS011;64760;53.404;23.498;2023-12-20T04:57:58;21.45;;;10.35;;
73593;SDS011;64760;53.404;23.498;2023-12-20T05:00:25;27.30;;;13.52;;
73593;SDS011;64760;53.404;23.498;2023-12-20T05:02:51;10.15;;;8.00;;
73593;SDS011;64760;53.404;23.498;2023-12-20T05:05:18;9.55;;;4.97;;
73593;SDS011;64760;53.404;23.498;2023-12-20T05:07:44;9.95;;;4.28;;
73593;SDS011;64760;53.404;23.498;2023-12-20T05:10:11;26.35;;;11.70;;
73593;SDS011;64760;53.404;23.498;2023-12-20T05:12:37;15.07;;;7.22;;
73593;SDS011;64760;53.404;23.498;2023-12-20T05:15:05;7.18;;;3.78;;
73593;SDS011;64760;53.404;23.498;2023-12-20T05:17:32;9.40;;;5.30;;
73593;SDS011;64760;53.404;23.498;2023-12-20T05:19:58;11.98;;;5.88;;
73593;SDS011;64760;53.404;23.498;2023-12-20T05:22:25;9.20;;;5.15;;
73593;SDS011;64760;53.404;23.498;2023-12-20T05:24:51;9.02;;;3.63;;
73593;SDS011;64760;53.404;23.498;2023-12-20T05:27:17;8.90;;;4.35;;
73593;SDS011;64760;53.404;23.498;2023-12-20T05:29:44;10.23;;;6.80;;
73593;SDS011;64760;53.404;23.498;2023-12-20T05:32:10;7.65;;;4.65;;
73593;SDS011;64760;53.404;23.498;2023-12-20T05:34:37;8.73;;;4.68;;
73593;SDS011;64760;53.404;23.498;2023-12-20T05:37:03;8.38;;;4.45;;
73593;SDS011;64760;53.404;23.498;2023-12-20T05:39:30;7.25;;;3.38;;
73593;SDS011;64760;53.404;23.498;2023-12-20T05:41:56;8.52;;;4.18;;
73593;SDS011;64760;53.404;23.498;2023-12-20T05:44:23;10.05;;;5.10;;
73593;SDS011;64760;53.404;23.498;2023-12-20T05:46:49;11.88;;;6.35;;
73593;SDS011;64760;53.404;23.498;2023-12-20T05:49:16;9.88;;;4.50;;
73593;SDS011;64760;53.404;23.498;2023-12-20T05:51:42;11.93;;;5.68;;
73593;SDS011;64760;53.404;23.498;2023-12-20T05:54:09;7.75;;;4.85;;
73593;SDS011;64760;53.404;23.498;2023-12-20T05:56:35;10.23;;;5.65;;
73593;SDS011;64760;53.404;23.498;2023-12-20T05:59:01;7.03;;;3.28;;
73593;SDS011;64760;53.404;23.498;2023-12-20T06:01:28;15.18;;;6.38;;
73593;SDS011;64760;53.404;23.498;2023-12-20T06:03:54;7.32;;;4.25;;
73593;SDS011;64760;53.404;23.498;2023-12-20T06:06:20;8.45;;;4.65;;
73593;SDS011;64760;53.404;23.498;2023-12-20T06:08:47;14.60;;;7.60;;
73593;SDS011;64760;53.404;23.498;2023-12-20T06:11:13;10.40;;;5.00;;
73593;SDS011;64760;53.404;23.498;2023-12-20T06:13:40;11.57;;;6.35;;
73593;SDS011;64760;53.404;23.498;2023-12-20T06:16:07;11.20;;;5.55;;
73593;SDS011;64760;53.404;23.498;2023-12-20T06:18:33;15.57;;;7.70;;
73593;SDS011;64760;53.404;23.498;2023-12-20T06:20:59;15.80;;;8.65;;
73593;SDS011;64760;53.404;23.498;2023-12-20T06:23:26;14.15;;;7.75;;
73593;SDS011;64760;53.404;23.498;2023-12-20T06:25:53;8.95;;;5.18;;
73593;SDS011;64760;53.404;23.498;2023-12-20T06:28:20;10.90;;;6.65;;
73593;SDS011;64760;53.404;23.498;2023-12-20T06:30:46;8.88;;;4.97;;
73593;SDS011;64760;53.404;23.498;2023-12-20T06:33:15;12.30;;;7.28;;
73593;SDS011;64760;53.404;23.498;2023-12-20T06:35:41;12.50;;;5.68;;
73593;SDS011;64760;53.404;23.498;2023-12-20T06:38:08;12.43;;;5.57;;
73593;SDS011;64760;53.404;23.498;2023-12-20T06:40:35;12.05;;;6.85;;
73593;SDS011;64760;53.404;23.498;2023-12-20T06:43:01;10.95;;;5.32;;
73593;SDS011;64760;53.404;23.498;2023-12-20T06:45:28;11.35;;;6.85;;
73593;SDS011;64760;53.404;23.498;2023-12-20T06:47:54;12.25;;;6.07;;
73593;SDS011;64760;53.404;23.498;2023-12-20T06:50:20;13.57;;;7.78;;
73593;SDS011;64760;53.404;23.498;2023-12-20T06:52:47;10.63;;;5.35;;
73593;SDS011;64760;53.404;23.498;2023-12-20T06:55:13;13.15;;;5.80;;
73593;SDS011;64760;53.404;23.498;2023-12-20T06:57:47;18.05;;;7.70;;
73593;SDS011;64760;53.404;23.498;2023-12-20T07:00:18;12.75;;;4.55;;
73593;SDS011;64760;53.404;23.498;2023-12-20T07:02:46;10.45;;;5.53;;
73593;SDS011;64760;53.404;23.498;2023-12-20T07:05:15;9.38;;;5.00;;
73593;SDS011;64760;53.404;23.498;2023-12-20T07:07:43;16.25;;;7.32;;
73593;SDS011;64760;53.404;23.498;2023-12-20T07:10:09;14.23;;;7.07;;
73593;SDS011;64760;53.404;23.498;2023-12-20T07:12:35;14.68;;;9.18;;
73593;SDS011;64760;53.404;23.498;2023-12-20T07:15:02;11.65;;;6.15;;
73593;SDS011;64760;53.404;23.498;2023-12-20T07:17:32;9.80;;;4.13;;
73593;SDS011;64760;53.404;23.498;2023-12-20T07:20:00;16.98;;;9.80;;
73593;SDS011;64760;53.404;23.498;2023-12-20T07:22:30;11.38;;;5.43;;
73593;SDS011;64760;53.404;23.498;2023-12-20T07:24:59;10.68;;;5.35;;
73593;SDS011;64760;53.404;23.498;2023-12-20T07:27:26;17.40;;;8.88;;
73593;SDS011;64760;53.404;23.498;2023-12-20T07:29:53;8.85;;;4.57;;
73593;SDS011;64760;53.404;23.498;2023-12-20T07:32:19;13.32;;;7.05;;
73593;SDS011;64760;53.404;23.498;2023-12-20T07:34:46;11.00;;;5.57;;
73593;SDS011;64760;53.404;23.498;2023-12-20T07:37:12;15.10;;;7.90;;
73593;SDS011;64760;53.404;23.498;2023-12-20T07:39:40;15.68;;;7.05;;
73593;SDS011;64760;53.404;23.498;2023-12-20T07:42:08;7.63;;;5.07;;
73593;SDS011;64760;53.404;23.498;2023-12-20T07:51:09;12.88;;;6.97;;
73593;SDS011;64760;53.404;23.498;2023-12-20T07:53:36;13.38;;;7.15;;
73593;SDS011;64760;53.404;23.498;2023-12-20T07:56:12;17.65;;;9.05;;
73593;SDS011;64760;53.404;23.498;2023-12-20T07:58:46;14.23;;;7.63;;
73593;SDS011;64760;53.404;23.498;2023-12-20T08:03:41;7.07;;;3.65;;
73593;SDS011;64760;53.404;23.498;2023-12-20T08:06:08;10.93;;;5.75;;
73593;SDS011;64760;53.404;23.498;2023-12-20T08:08:34;15.55;;;7.50;;
73593;SDS011;64760;53.404;23.498;2023-12-20T08:11:00;10.95;;;5.20;;
73593;SDS011;64760;53.404;23.498;2023-12-20T08:13:28;15.32;;;6.72;;
73593;SDS011;64760;53.404;23.498;2023-12-20T08:15:55;18.13;;;6.82;;
73593;SDS011;64760;53.404;23.498;2023-12-20T08:18:22;13.32;;;6.50;;
73593;SDS011;64760;53.404;23.498;2023-12-20T08:20:49;11.60;;;6.00;;
73593;SDS011;64760;53.404;23.498;2023-12-20T08:23:16;10.85;;;5.28;;
73593;SDS011;64760;53.404;23.498;2023-12-20T08:25:42;13.20;;;6.88;;
73593;SDS011;64760;53.404;23.498;2023-12-20T08:28:08;14.20;;;7.53;;
73593;SDS011;64760;53.404;23.498;2023-12-20T08:30:35;11.93;;;6.22;;
73593;SDS011;64760;53.404;23.498;2023-12-20T08:33:01;9.75;;;4.90;;
73593;SDS011;64760;53.404;23.498;2023-12-20T08:35:28;13.80;;;8.00;;
73593;SDS011;64760;53.404;23.498;2023-12-20T08:37:54;14.48;;;7.53;;
73593;SDS011;64760;53.404;23.498;2023-12-20T08:40:22;16.80;;;6.80;;
73593;SDS011;64760;53.404;23.498;2023-12-20T08:42:49;20.33;;;8.95;;
73593;SDS011;64760;53.404;23.498;2023-12-20T08:45:15;26.77;;;12.13;;
73593;SDS011;64760;53.404;23.498;2023-12-20T08:47:42;23.08;;;10.10;;
73593;SDS011;64760;53.404;23.498;2023-12-20T08:52:37;19.30;;;9.13;;
73593;SDS011;64760;53.404;23.498;2023-12-20T08:55:03;18.17;;;7.95;;
73593;SDS011;64760;53.404;23.498;2023-12-20T08:57:31;14.75;;;7.60;;
73593;SDS011;64760;53.404;23.498;2023-12-20T08:59:58;13.38;;;6.35;;
73593;SDS011;64760;53.404;23.498;2023-12-20T09:02:24;10.88;;;6.30;;
73593;SDS011;64760;53.404;23.498;2023-12-20T09:04:51;18.27;;;9.23;;
73593;SDS011;64760;53.404;23.498;2023-12-20T09:07:21;12.32;;;5.53;;
73593;SDS011;64760;53.404;23.498;2023-12-20T09:09:48;3.90;;;1.88;;
73593;SDS011;64760;53.404;23.498;2023-12-20T09:12:14;4.47;;;2.42;;
73593;SDS011;64760;53.404;23.498;2023-12-20T09:14:41;5.00;;;2.65;;
73593;SDS011;64760;53.404;23.498;2023-12-20T09:17:07;5.05;;;2.13;;
73593;SDS011;64760;53.404;23.498;2023-12-20T09:19:34;4.22;;;1.70;;
73593;SDS011;64760;53.404;23.498;2023-12-20T09:22:01;4.32;;;1.77;;
73593;SDS011;64760;53.404;23.498;2023-12-20T09:24:27;2.55;;;1.42;;
73593;SDS011;64760;53.404;23.498;2023-12-20T09:26:54;2.38;;;1.00;;
73593;SDS011;64760;53.404;23.498;2023-12-20T09:29:20;4.20;;;1.73;;
73593;SDS011;64760;53.404;23.498;2023-12-20T09:31:47;2.47;;;1.38;;
73593;SDS011;64760;53.404;23.498;2023-12-20T09:34:14;3.20;;;1.90;;
73593;SDS011;64760;53.404;23.498;2023-12-20T09:36:42;8.30;;;2.80;;
73593;SDS011;64760;53.404;23.498;2023-12-20T09:39:13;3.50;;;1.77;;
73593;SDS011;64760;53.404;23.498;2023-12-20T09:41:42;2.95;;;1.38;;
73593;SDS011;64760;53.404;23.498;2023-12-20T09:44:14;4.93;;;2.20;;
73593;SDS011;64760;53.404;23.498;2023-12-20T09:46:44;4.70;;;2.75;;
73593;SDS011;64760;53.404;23.498;2023-12-20T09:49:12;3.70;;;1.50;;
73593;SDS011;64760;53.404;23.498;2023-12-20T09:51:39;4.97;;;2.03;;
73593;SDS011;64760;53.404;23.498;2023-12-20T09:54:07;4.03;;;2.10;;
73593;SDS011;64760;53.404;23.498;2023-12-20T09:56:34;7.65;;;2.92;;
73593;SDS011;64760;53.404;23.498;2023-12-20T09:59:00;12.93;;;2.92;;
73593;SDS011;64760;53.404;23.498;2023-12-20T10:01:28;12.73;;;4.10;;
73593;SDS011;64760;53.404;23.498;2023-12-20T10:03:57;15.85;;;7.90;;
73593;SDS011;64760;53.404;23.498;2023-12-20T10:06:26;36.25;;;16.92;;
73593;SDS011;64760;53.404;23.498;2023-12-20T10:08:53;18.92;;;8.25;;
73593;SDS011;64760;53.404;23.498;2023-12-20T10:11:19;18.13;;;7.10;;
73593;SDS011;64760;53.404;23.498;2023-12-20T10:13:50;11.65;;;4.88;;
73593;SDS011;64760;53.404;23.498;2023-12-20T10:16:17;10.65;;;3.95;;
73593;SDS011;64760;53.404;23.498;2023-12-20T10:18:44;13.32;;;5.70;;
73593;SDS011;64760;53.404;23.498;2023-12-20T10:21:11;12.15;;;5.47;;
73593;SDS011;64760;53.404;23.498;2023-12-20T10:23:37;18.20;;;7.13;;
73593;SDS011;64760;53.404;23.498;2023-12-20T10:26:06;13.80;;;6.57;;
73593;SDS011;64760;53.404;23.498;2023-12-20T10:28:35;18.63;;;7.95;;
73593;SDS011;64760;53.404;23.498;2023-12-20T10:31:02;7.80;;;3.58;;
73593;SDS011;64760;53.404;23.498;2023-12-20T10:33:28;9.20;;;4.68;;
73593;SDS011;64760;53.404;23.498;2023-12-20T10:42:51;17.95;;;8.88;;
73593;SDS011;64760;53.404;23.498;2023-12-20T10:45:22;10.18;;;5.10;;
73593;SDS011;64760;53.404;23.498;2023-12-20T10:47:50;9.50;;;4.10;;
73593;SDS011;64760;53.404;23.498;2023-12-20T10:50:17;15.13;;;6.03;;
73593;SDS011;64760;53.404;23.498;2023-12-20T10:52:45;14.55;;;8.13;;
73593;SDS011;64760;53.404;23.498;2023-12-20T10:55:13;12.07;;;7.15;;
73593;SDS011;64760;53.404;23.498;2023-12-20T10:57:39;20.27;;;8.82;;
73593;SDS011;64760;53.404;23.498;2023-12-20T11:00:08;19.20;;;8.40;;
73593;SDS011;64760;53.404;23.498;2023-12-20T11:02:40;16.75;;;7.63;;
73593;SDS011;64760;53.404;23.498;2023-12-20T11:05:16;16.63;;;7.82;;
73593;SDS011;64760;53.404;23.498;2023-12-20T11:08:02;19.90;;;9.77;;
73593;SDS011;64760;53.404;23.498;2023-12-20T11:10:43;15.07;;;7.50;;
73593;SDS011;64760;53.404;23.498;2023-12-20T11:13:22;9.25;;;3.90;;
73593;SDS011;64760;53.404;23.498;2023-12-20T11:15:52;3.65;;;1.80;;
73593;SDS011;64760;53.404;23.498;2023-12-20T11:18:28;4.43;;;1.95;;
73593;SDS011;64760;53.404;23.498;2023-12-20T11:21:00;4.03;;;2.13;;
73593;SDS011;64760;53.404;23.498;2023-12-20T11:23:29;10.13;;;4.03;;
73593;SDS011;64760;53.404;23.498;2023-12-20T11:25:59;9.82;;;5.00;;
73593;SDS011;64760;53.404;23.498;2023-12-20T11:28:26;11.82;;;5.15;;
73593;SDS011;64760;53.404;23.498;2023-12-20T11:30:54;11.75;;;4.78;;
73593;SDS011;64760;53.404;23.498;2023-12-20T11:33:25;10.68;;;5.18;;
73593;SDS011;64760;53.404;23.498;2023-12-20T11:35:55;11.73;;;4.38;;
73593;SDS011;64760;53.404;23.498;2023-12-20T11:40:50;9.70;;;3.70;;
73593;SDS011;64760;53.404;23.498;2023-12-20T11:43:32;9.57;;;4.55;;
73593;SDS011;64760;53.404;23.498;2023-12-20T11:46:07;14.18;;;7.45;;
73593;SDS011;64760;53.404;23.498;2023-12-20T11:48:38;12.95;;;6.57;;
73593;SDS011;64760;53.404;23.498;2023-12-20T11:51:13;14.55;;;7.57;;
73593;SDS011;64760;53.404;23.498;2023-12-20T11:53:40;13.18;;;6.35;;
73593;SDS011;64760;53.404;23.498;2023-12-20T11:56:08;13.95;;;5.55;;
73593;SDS011;64760;53.404;23.498;2023-12-20T11:58:36;10.20;;;5.32;;
73593;SDS011;64760;53.404;23.498;2023-12-20T12:01:07;7.25;;;3.53;;
73593;SDS011;64760;53.404;23.498;2023-12-20T12:03:39;8.82;;;4.80;;
73593;SDS011;64760;53.404;23.498;2023-12-20T12:06:09;11.10;;;5.38;;
73593;SDS011;64760;53.404;23.498;2023-12-20T12:08:39;11.52;;;3.95;;
73593;SDS011;64760;53.404;23.498;2023-12-20T12:11:11;12.52;;;5.05;;
73593;SDS011;64760;53.404;23.498;2023-12-20T12:13:42;13.35;;;5.78;;
73593;SDS011;64760;53.404;23.498;2023-12-20T12:16:12;8.23;;;4.22;;
73593;SDS011;64760;53.404;23.498;2023-12-20T12:18:57;12.95;;;4.95;;
73593;SDS011;64760;53.404;23.498;2023-12-20T12:21:24;18.40;;;9.00;;
73593;SDS011;64760;53.404;23.498;2023-12-20T12:23:53;11.90;;;5.82;;
73593;SDS011;64760;53.404;23.498;2023-12-20T12:26:24;6.55;;;4.03;;
73593;SDS011;64760;53.404;23.498;2023-12-20T12:28:54;15.88;;;6.25;;
73593;SDS011;64760;53.404;23.498;2023-12-20T12:31:24;24.23;;;8.98;;
73593;SDS011;64760;53.404;23.498;2023-12-20T12:33:57;23.65;;;9.93;;
73593;SDS011;64760;53.404;23.498;2023-12-20T12:36:29;39.33;;;12.60;;
73593;SDS011;64760;53.404;23.498;2023-12-20T12:39:04;19.35;;;8.48;;
73593;SDS011;64760;53.404;23.498;2023-12-20T12:41:39;16.98;;;5.32;;
73593;SDS011;64760;53.404;23.498;2023-12-20T12:44:06;18.00;;;10.23;;
73593;SDS011;64760;53.404;23.498;2023-12-20T12:46:32;21.65;;;10.70;;
73593;SDS011;64760;53.404;23.498;2023-12-20T12:48:59;17.20;;;7.53;;
73593;SDS011;64760;53.404;23.498;2023-12-20T12:51:25;10.05;;;6.05;;
73593;SDS011;64760;53.404;23.498;2023-12-20T12:53:52;15.50;;;7.57;;
73593;SDS011;64760;53.404;23.498;2023-12-20T12:56:19;21.45;;;11.35;;
73593;SDS011;64760;53.404;23.498;2023-12-20T12:58:46;25.05;;;12.68;;
73593;SDS011;64760;53.404;23.498;2023-12-20T13:01:12;28.40;;;12.95;;
73593;SDS011;64760;53.404;23.498;2023-12-20T13:03:38;17.48;;;8.02;;
73593;SDS011;64760;53.404;23.498;2023-12-20T13:06:05;11.30;;;6.22;;
73593;SDS011;64760;53.404;23.498;2023-12-20T13:08:35;25.73;;;11.38;;
73593;SDS011;64760;53.404;23.498;2023-12-20T13:11:01;20.67;;;9.07;;
73593;SDS011;64760;53.404;23.498;2023-12-20T13:13:34;18.20;;;8.85;;
73593;SDS011;64760;53.404;23.498;2023-12-20T13:18:43;27.17;;;10.88;;
73593;SDS011;64760;53.404;23.498;2023-12-20T13:21:09;22.65;;;11.75;;
73593;SDS011;64760;53.404;23.498;2023-12-20T13:23:36;33.67;;;15.38;;
73593;SDS011;64760;53.404;23.498;2023-12-20T13:26:02;46.95;;;20.60;;
73593;SDS011;64760;53.404;23.498;2023-12-20T13:28:29;29.23;;;12.43;;
73593;SDS011;64760;53.404;23.498;2023-12-20T13:30:55;23.00;;;8.98;;
73593;SDS011;64760;53.404;23.498;2023-12-20T13:33:22;47.45;;;16.00;;
73593;SDS011;64760;53.404;23.498;2023-12-20T13:35:49;25.50;;;10.80;;
73593;SDS011;64760;53.404;23.498;2023-12-20T13:38:16;26.58;;;9.77;;
73593;SDS011;64760;53.404;23.498;2023-12-20T13:40:42;13.75;;;6.18;;
73593;SDS011;64760;53.404;23.498;2023-12-20T13:43:09;19.63;;;7.57;;
73593;SDS011;64760;53.404;23.498;2023-12-20T13:45:37;22.80;;;8.52;;
73593;SDS011;64760;53.404;23.498;2023-12-20T13:48:04;61.25;;;22.63;;
73593;SDS011;64760;53.404;23.498;2023-12-20T13:50:31;52.28;;;20.15;;
73593;SDS011;64760;53.404;23.498;2023-12-20T13:52:57;38.22;;;14.68;;
73593;SDS011;64760;53.404;23.498;2023-12-20T13:55:23;28.00;;;10.55;;
73593;SDS011;64760;53.404;23.498;2023-12-20T13:57:51;25.20;;;11.63;;
73593;SDS011;64760;53.404;23.498;2023-12-20T14:00:17;58.92;;;21.58;;
73593;SDS011;64760;53.404;23.498;2023-12-20T14:02:44;49.10;;;20.95;;
73593;SDS011;64760;53.404;23.498;2023-12-20T14:05:12;47.83;;;18.75;;
73593;SDS011;64760;53.404;23.498;2023-12-20T14:07:40;40.63;;;17.73;;
73593;SDS011;64760;53.404;23.498;2023-12-20T14:10:06;82.25;;;37.30;;
73593;SDS011;64760;53.404;23.498;2023-12-20T14:12:33;42.95;;;19.20;;
73593;SDS011;64760;53.404;23.498;2023-12-20T14:15:02;34.75;;;16.20;;
73593;SDS011;64760;53.404;23.498;2023-12-20T14:17:30;33.60;;;16.15;;
73593;SDS011;64760;53.404;23.498;2023-12-20T14:19:58;35.08;;;16.85;;
73593;SDS011;64760;53.404;23.498;2023-12-20T14:22:24;42.55;;;19.17;;
73593;SDS011;64760;53.404;23.498;2023-12-20T14:24:51;45.95;;;19.50;;
73593;SDS011;64760;53.404;23.498;2023-12-20T14:27:17;44.88;;;20.05;;
73593;SDS011;64760;53.404;23.498;2023-12-20T14:29:47;40.53;;;19.10;;
73593;SDS011;64760;53.404;23.498;2023-12-20T14:32:13;49.00;;;21.08;;
73593;SDS011;64760;53.404;23.498;2023-12-20T14:34:41;39.53;;;17.30;;
73593;SDS011;64760;53.404;23.498;2023-12-20T14:37:08;47.90;;;20.65;;
73593;SDS011;64760;53.404;23.498;2023-12-20T14:39:35;40.17;;;17.88;;
73593;SDS011;64760;53.404;23.498;2023-12-20T14:42:05;48.97;;;17.60;;
73593;SDS011;64760;53.404;23.498;2023-12-20T14:44:32;38.45;;;14.48;;
73593;SDS011;64760;53.404;23.498;2023-12-20T14:46:58;36.00;;;12.60;;
73593;SDS011;64760;53.404;23.498;2023-12-20T14:49:24;24.10;;;11.13;;
73593;SDS011;64760;53.404;23.498;2023-12-20T14:54:19;28.20;;;13.95;;
73593;SDS011;64760;53.404;23.498;2023-12-20T14:56:46;31.63;;;15.43;;
73593;SDS011;64760;53.404;23.498;2023-12-20T14:59:13;26.85;;;12.57;;
73593;SDS011;64760;53.404;23.498;2023-12-20T15:01:40;69.95;;;29.13;;